createdAt,value
2023-11-24T00:02:20.217Z,2.40
2023-11-24T00:07:23.380Z,2.53
2023-11-24T00:12:26.728Z,1.90
2023-11-24T00:17:31.251Z,1.57
2023-11-24T00:22:34.435Z,0.80
2023-11-24T00:27:38.529Z,0.70
2023-11-24T00:32:44.942Z,0.63
2023-11-24T00:37:48.289Z,0.60
2023-11-24T00:42:51.557Z,0.53
2023-11-24T00:47:56.131Z,0.70
2023-11-24T00:52:59.560Z,0.60
2023-11-24T00:58:02.703Z,0.60
2023-11-24T01:03:07.749Z,0.77
2023-11-24T01:08:13.093Z,0.80
2023-11-24T01:13:22.197Z,0.50
2023-11-24T01:18:29.070Z,0.70
2023-11-24T01:23:32.652Z,0.73
2023-11-24T01:28:36.686Z,1.00
2023-11-24T01:33:44.652Z,1.20
2023-11-24T01:38:50.751Z,1.20
2023-11-24T01:43:59.987Z,1.03
2023-11-24T01:49:06.050Z,1.30
2023-11-24T01:54:09.662Z,1.67
2023-11-24T01:59:16.933Z,1.30
2023-11-24T02:04:22.323Z,1.50
2023-11-24T02:09:28.504Z,1.93
2023-11-24T02:14:31.786Z,1.63
2023-11-24T02:19:58.369Z,1.90
2023-11-24T02:25:23.333Z,1.10
2023-11-24T02:30:42.698Z,1.60
2023-11-24T02:35:45.965Z,1.33
2023-11-24T02:40:51.871Z,1.90
2023-11-24T02:46:14.650Z,1.40
2023-11-24T02:51:21.140Z,1.40
2023-11-24T02:56:25.750Z,1.50
2023-11-24T03:01:28.979Z,1.53
2023-11-24T03:06:32.307Z,1.40
2023-11-24T03:11:37.285Z,2.17
2023-11-24T03:16:41.573Z,1.83
2023-11-24T03:21:44.932Z,1.93
2023-11-24T03:26:49.544Z,1.97
2023-11-24T03:31:52.772Z,1.83
2023-11-24T03:36:55.914Z,1.50
2023-11-24T03:42:00.498Z,1.30
2023-11-24T03:47:03.659Z,2.07
2023-11-24T03:52:07.684Z,1.50
2023-11-24T03:57:12.697Z,1.33
2023-11-24T04:02:16.093Z,1.40
2023-11-24T04:07:19.480Z,1.10
2023-11-24T04:12:24.410Z,1.30
2023-11-24T04:17:27.582Z,1.07
2023-11-24T04:22:30.993Z,1.13
2023-11-24T04:27:35.860Z,1.37
2023-11-24T04:32:39.321Z,1.50
2023-11-24T04:37:42.777Z,1.73
2023-11-24T04:42:47.434Z,2.03
2023-11-24T04:47:50.878Z,1.40
2023-11-24T04:52:54.248Z,1.77
2023-11-24T04:57:59.082Z,1.53
2023-11-24T05:03:02.564Z,1.50
2023-11-24T05:08:06.233Z,1.47
2023-11-24T05:13:11.277Z,1.60
2023-11-24T05:18:14.606Z,2.20
2023-11-24T05:23:17.995Z,1.37
2023-11-24T05:28:22.888Z,1.97
2023-11-24T05:33:26.172Z,2.30
2023-11-24T05:38:29.451Z,1.67
2023-11-24T05:43:35.316Z,2.27
2023-11-24T05:48:39.006Z,1.90
2023-11-24T05:53:42.853Z,1.70
2023-11-24T05:58:47.888Z,1.60
2023-11-24T06:03:52.731Z,1.83
2023-11-24T06:08:56.431Z,1.63
2023-11-24T06:14:03.943Z,2.70
2023-11-24T06:19:07.628Z,2.20
2023-11-24T06:24:28.865Z,2.80
2023-11-24T06:29:42.407Z,1.87
2023-11-24T06:34:46.173Z,1.63
2023-11-24T06:39:52.186Z,1.73
2023-11-24T06:44:59.593Z,2.50
2023-11-24T06:50:05.868Z,1.50
2023-11-24T06:55:17.561Z,2.30
2023-11-24T07:00:23.931Z,1.60
2023-11-24T07:05:31.537Z,1.83
2023-11-24T07:10:35.043Z,1.50
2023-11-24T07:15:42.275Z,1.43
2023-11-24T07:20:50.582Z,2.00
2023-11-24T07:25:55.617Z,1.73
2023-11-24T07:31:05.478Z,1.60
2023-11-24T07:36:20.952Z,1.83
2023-11-24T07:46:55.917Z,2.07
2023-11-24T07:51:59.245Z,2.00
2023-11-24T07:57:02.620Z,1.80
2023-11-24T08:02:11.399Z,1.30
2023-11-24T08:07:14.875Z,1.70
2023-11-24T08:12:20.338Z,1.47
2023-11-24T08:17:25.193Z,2.20
2023-11-24T08:22:29.731Z,1.40
2023-11-24T08:27:33.052Z,1.23
2023-11-24T08:32:37.974Z,3.03
2023-11-24T08:37:41.682Z,1.60
2023-11-24T08:42:46.101Z,2.07
2023-11-24T08:47:50.955Z,1.77
2023-11-24T08:52:54.158Z,1.20
2023-11-24T08:58:00.810Z,1.17
2023-11-24T09:03:09.036Z,1.60
2023-11-24T09:08:12.404Z,2.20
2023-11-24T09:13:17.531Z,1.20
2023-11-24T09:18:25.417Z,1.00
2023-11-24T09:23:28.688Z,1.20
2023-11-24T09:28:35.745Z,0.60
2023-11-24T09:33:43.189Z,0.73
2023-11-24T09:38:47.876Z,0.90
2023-11-24T09:43:51.752Z,1.00
2023-11-24T09:48:57.099Z,0.97
2023-11-24T09:54:04.334Z,0.93
2023-11-24T09:59:10.273Z,0.90
2023-11-24T10:04:15.873Z,1.03
2023-11-24T10:09:26.332Z,0.90
2023-11-24T10:14:29.733Z,0.70
2023-11-24T10:19:34.540Z,1.00
2023-11-24T10:24:39.284Z,1.00
2023-11-24T10:29:42.673Z,0.97
2023-11-24T10:34:48.810Z,1.07
2023-11-24T10:39:55.899Z,1.00
2023-11-24T10:45:05.475Z,0.90
2023-11-24T10:50:13.958Z,0.87
2023-11-24T10:55:18.682Z,1.10
2023-11-24T11:00:24.848Z,0.60
2023-11-24T11:05:43.950Z,0.70
2023-11-24T11:11:07.581Z,0.70
2023-11-24T11:16:15.197Z,1.07
2023-11-24T11:21:38.647Z,1.07
2023-11-24T11:26:50.216Z,0.70
2023-11-24T11:31:54.086Z,0.77
2023-11-24T11:37:13.933Z,0.70
2023-11-24T11:42:17.755Z,0.70
2023-11-24T11:47:24.013Z,0.60
2023-11-24T11:52:32.626Z,0.70
2023-11-24T11:57:37.370Z,1.20
2023-11-24T12:02:41.168Z,1.00
2023-11-24T12:07:49.645Z,0.90
2023-11-24T12:12:53.898Z,1.20
2023-11-24T12:17:58.426Z,1.13
2023-11-24T12:23:05.386Z,0.90
2023-11-24T12:28:11.059Z,1.10
2023-11-24T12:33:20.930Z,1.00
2023-11-24T12:38:26.104Z,1.90
2023-11-24T12:43:34.767Z,1.60
2023-11-24T12:48:41.456Z,1.40
2023-11-24T12:53:48.135Z,1.03
2023-11-24T12:58:52.207Z,0.60
2023-11-24T13:03:55.564Z,0.80
2023-11-24T13:09:01.161Z,0.60
2023-11-24T13:14:04.817Z,0.70
2023-11-24T13:19:09.253Z,0.83
2023-11-24T13:24:14.889Z,0.90
2023-11-24T13:29:18.321Z,0.90
2023-11-24T13:34:22.206Z,1.20
2023-11-24T13:39:30.400Z,0.60
2023-11-24T13:44:35.951Z,1.00
2023-11-24T13:49:40.654Z,0.97
2023-11-24T13:54:45.249Z,1.10
2023-11-24T13:59:48.950Z,1.00
2023-11-24T14:04:52.366Z,0.70
2023-11-24T14:09:57.805Z,0.90
2023-11-24T14:15:02.174Z,1.50
2023-11-24T14:20:08.333Z,0.90
2023-11-24T14:25:15.290Z,1.00
2023-11-24T14:30:19.744Z,1.10
2023-11-24T14:35:23.025Z,0.77
2023-11-24T14:40:30.056Z,1.10
2023-11-24T14:45:34.591Z,1.50
2023-11-24T14:50:38.023Z,1.20
2023-11-24T14:55:42.761Z,1.47
2023-11-24T15:00:46.248Z,0.40
2023-11-24T15:05:56.118Z,0.60
2023-11-24T15:11:05.915Z,0.40
2023-11-24T15:16:13.632Z,0.20
2023-11-24T15:21:29.404Z,0.40
2023-11-24T15:26:37.356Z,0.60
2023-11-24T15:31:44.996Z,0.50
2023-11-24T15:36:50.014Z,0.40
2023-11-24T15:41:55.085Z,0.30
2023-11-24T15:46:58.498Z,0.70
2023-11-24T15:52:03.657Z,0.70
2023-11-24T15:57:10.243Z,0.70
2023-11-24T16:02:16.660Z,1.53
2023-11-24T16:07:22.905Z,1.00
2023-11-24T16:12:33.625Z,0.90
2023-11-24T16:17:36.860Z,0.80
2023-11-24T16:22:40.255Z,1.00
2023-11-24T16:27:44.819Z,1.33
2023-11-24T16:32:49.301Z,1.40
2023-11-24T16:37:52.957Z,1.37
2023-11-24T16:42:58.186Z,1.50
2023-11-24T16:48:01.819Z,1.47
2023-11-24T16:53:06.120Z,1.10
2023-11-24T16:58:11.780Z,1.30
2023-11-24T17:03:15.342Z,1.00
2023-11-24T17:08:20.935Z,0.87
2023-11-24T17:13:26.417Z,0.70
2023-11-24T17:18:29.782Z,0.90
2023-11-24T17:23:34.250Z,1.40
2023-11-24T17:28:39.258Z,1.53
2023-11-24T17:33:42.665Z,1.57
2023-11-24T17:38:46.397Z,1.33
2023-11-24T17:43:51.457Z,1.27
2023-11-24T17:48:55.227Z,1.10
2023-11-24T17:53:59.202Z,0.80
2023-11-24T17:59:04.725Z,0.60
2023-11-24T18:04:08.551Z,3.57
2023-11-24T18:09:11.978Z,2.60
2023-11-24T18:14:18.890Z,1.30
2023-11-24T18:19:22.169Z,2.00
2023-11-24T18:24:26.496Z,1.10
2023-11-24T18:29:31.355Z,1.23
2023-11-24T18:34:34.668Z,1.37
2023-11-24T18:39:37.994Z,1.20
2023-11-24T18:44:42.813Z,1.80
2023-11-24T18:49:46.560Z,0.83
2023-11-24T18:54:50.129Z,1.37
2023-11-24T18:59:54.864Z,1.23
2023-11-24T19:04:58.602Z,0.93
2023-11-24T19:10:02.480Z,1.00
2023-11-24T19:20:41.292Z,1.00
2023-11-24T19:25:45.214Z,2.20
2023-11-24T19:30:53.121Z,1.73
2023-11-24T19:35:56.779Z,1.20
2023-11-24T19:41:00.029Z,1.17
2023-11-24T19:46:06.000Z,1.20
2023-11-24T19:51:10.096Z,1.67
2023-11-24T19:56:14.816Z,1.00
2023-11-24T20:01:29.207Z,0.90
2023-11-24T20:06:33.509Z,1.57
2023-11-24T20:11:37.452Z,1.20
2023-11-24T20:16:43.420Z,1.20
2023-11-24T20:21:47.128Z,1.73
2023-11-24T20:26:50.638Z,1.27
2023-11-24T20:31:55.716Z,1.00
2023-11-24T20:36:59.056Z,1.67
2023-11-24T20:42:02.316Z,1.13
2023-11-24T20:47:09.347Z,0.87
2023-11-24T20:52:12.749Z,0.93
2023-11-24T20:57:16.208Z,0.87
2023-11-24T21:02:21.709Z,1.00
2023-11-24T21:07:25.473Z,0.90
2023-11-24T21:12:29.509Z,0.70
2023-11-24T21:17:34.281Z,0.60
2023-11-24T21:22:38.040Z,0.67
2023-11-24T21:27:41.291Z,0.60
2023-11-24T21:32:46.681Z,0.70
2023-11-24T21:37:50.583Z,1.00
2023-11-24T21:42:55.264Z,1.20
2023-11-24T21:47:59.965Z,1.10
2023-11-24T21:53:03.398Z,1.00
2023-11-24T21:58:06.878Z,0.90
2023-11-24T22:03:11.714Z,1.23
2023-11-24T22:08:15.765Z,0.90
2023-11-24T22:13:19.043Z,1.00
2023-11-24T22:18:23.849Z,1.00
2023-11-24T22:23:29.981Z,1.00
2023-11-24T22:28:34.075Z,1.10
2023-11-24T22:33:38.896Z,0.90
2023-11-24T22:38:42.255Z,0.77
2023-11-24T22:43:45.551Z,0.90
2023-11-24T22:48:50.634Z,0.83
2023-11-24T22:53:54.436Z,0.70
2023-11-24T22:58:59.994Z,0.50
2023-11-24T23:04:06.425Z,0.47
2023-11-24T23:09:09.815Z,0.57
2023-11-24T23:14:13.091Z,0.53
2023-11-24T23:19:17.863Z,0.50
2023-11-24T23:24:21.199Z,0.47
2023-11-24T23:29:25.030Z,0.37
2023-11-24T23:34:29.712Z,0.57
2023-11-24T23:39:35.684Z,0.73
2023-11-24T23:44:38.988Z,0.80
2023-11-24T23:49:44.415Z,0.90
2023-11-24T23:54:47.739Z,0.80
2023-11-24T23:59:52.063Z,1.30
